Grovania, Georgia
Current Conditions -  °F | °C
As of 10:15 AM on Wednesday 22 Oct 2014 (Local Time) from KPXE Reporting Station
Clear Clear  
Wind Chill: 60°   Ceiling: Unl
Heat Index: 60°   Visibility: 10mi
Dew Point: 43°   Wind: 9mph
Humidity: 52%   Direction: 10°N
Pressure: 30.11"   Gusts: NA
Location:  32.2568°N, 83.5362°W
Report Text: KPXE 221415Z AUTO 01008KT 10SM CLR 16/06 A3011 RMK AO2 T01580060
Loading
Personal Weather Stations






























Interactive Weather Map
Tropical Storm Tracking
New forecast layout! Learn more

10-Day Weather Forecast

Advertisements
Track Severe Weather on mobile